Nearby METAR Reports

 

EGNR - Hawarden (aut), United Kingdom
Distance from station: ESE 33mi, 53km
Updated: 20/05/2019 11:50
Partly cloudy
Partly cloudy
 Wind from NNW
Wind: NNW 12 mph , 19 km/h
Temperature: 15°C
Dew Point: 9°C
Humidity: 68%
Barometer: 1015 hPa
Clouds: Partly cloudy
Visibility: 6 miles , 10 km
Cloud details: Partly cloudy 549 m
2019/05/20 10:50 EGNR 201050Z 33010KT 9999 SCT018 15/09 Q1015
EGOV - Valley Raf, United Kingdom
Distance from station: W 33mi, 53km
Updated: 20/05/2019 11:50
Few Clouds
Few Clouds
 Wind from NW
Wind: NW 9 mph , 15 km/h
Temperature: 14°C
Dew Point: 9°C
Humidity: 72%
Barometer: 1015 hPa
Clouds: Few Clouds
Visibility: 6 miles , 10 km
Cloud details: Few Clouds 488 m
2019/05/20 10:50 EGOV 201050Z 32008KT 9999 FEW016 14/09 Q1015 BLU NOSIG
 
EGGP - Liverpool Airpor, United Kingdom
Distance from station: E 37mi, 59km
Updated: 20/05/2019 11:50
Partly cloudy
Partly cloudy
 Wind from W
Wind: W 15 mph , 24 km/h
Temperature: 14°C
Dew Point: 8°C
Humidity: 67%
Barometer: 1014 hPa
Clouds: Partly cloudy
Visibility: 6 miles , 10 km
Cloud details: Few Clouds 579 m
Partly cloudy 671 m
2019/05/20 10:50 EGGP 201050Z 28013KT 9999 FEW019 SCT022 14/08 Q1014
EGNH - Blackpool Airpor, United Kingdom
Distance from station: NE 44mi, 72km
Updated: 20/05/2019 11:50
Few Clouds
Few Clouds
 Wind from WNW
Wind: WNW 15 mph , 24 km/h
Temperature: 14°C
Dew Point: 9°C
Humidity: 72%
Barometer: 1014 hPa
Clouds: Few Clouds
Visibility: 6 miles , 10 km
Cloud details: Few Clouds 366 m
2019/05/20 10:50 EGNH 201050Z 29013KT 9999 FEW012 14/09 Q1014
 
EGNO - Wharton, United Kingdom
Distance from station: NE 47mi, 76km
Updated: 20/05/2019 11:50
Few Clouds
Few Clouds
 Wind from WNW
Wind: WNW 12 mph , 19 km/h
Temperature: 14°C
Dew Point: 9°C
Humidity: 72%
Barometer: 1014 hPa
Clouds: Few Clouds
Visibility: 6 miles , 10 km
Cloud details: Few Clouds 610 m
2019/05/20 10:50 EGNO 201050Z 30010KT 270V330 9999 FEW020 14/09 Q1014
EGOS - Shawbury Raf, United Kingdom
Distance from station: SE 56mi, 89km
Updated: 20/05/2019 11:50
Mostly cloudy
Mostly cloudy
 Wind from N
Wind: N 10 mph , 17 km/h
Temperature: 15°C
Dew Point: 9°C
Humidity: 68%
Barometer: 1014 hPa
Clouds: Mostly cloudy
Visibility: 6 miles , 10 km
Cloud details: Mostly cloudy 853 m
2019/05/20 10:50 EGOS 201050Z 35009KT 9999 BKN028 15/09 Q1014 BLU NOSIG
 
EGCC - Manchester Intl, United Kingdom
Distance from station: E 61mi, 98km
Updated: 20/05/2019 11:50
Partly cloudy
Partly cloudy
 Wind from WNW
Wind: WNW 9 mph , 15 km/h
Temperature: 14°C
Dew Point: 8°C
Humidity: 67%
Barometer: 1014 hPa
Clouds: Partly cloudy
Visibility: 6 miles , 10 km
Cloud details: Few Clouds 792 m
Partly cloudy 1280 m
2019/05/20 10:50 EGCC 201050Z 30008KT 250V330 9999 FEW026 SCT042 14/08 Q1014
EGNS - Isle Of Man/Rona, United Kingdom
Distance from station: NW 66mi, 107km
Updated: 20/05/2019 11:50
Few Clouds
Few Clouds
 Wind from W
Wind: W 10 mph , 17 km/h
Temperature: 13°C
Dew Point: 6°C
Humidity: 63%
Barometer: 1015 hPa
Clouds: Few Clouds
Visibility: 6 miles , 10 km
Cloud details: Few Clouds 274 m
2019/05/20 10:50 EGNS 201050Z 28009KT 240V320 9999 FEW009 13/06 Q1015 NOSIG
 
EGNM - Leeds And Bradfo, United Kingdom
Distance from station: ENE 95mi, 153km
Updated: 20/05/2019 11:50
Partly cloudy
Partly cloudy
 Wind from NW
Wind: NW 9 mph , 15 km/h
Temperature: 16°C
Dew Point: 8°C
Humidity: 59%
Barometer: 1012 hPa
Clouds: Partly cloudy
Visibility: 6 miles , 10 km
Cloud details: Partly cloudy 853 m
2019/05/20 10:50 EGNM 201050Z 31008KT 280V360 9999 SCT028TCU 16/08 Q1012
EGBB - Birmingham Airpo, United Kingdom
Distance from station: ESE 100mi, 161km
Updated: 20/05/2019 11:50
Mostly cloudy
Mostly cloudy
 Wind from NW
Wind: NW 8 mph , 13 km/h
Temperature: 16°C
Dew Point: 8°C
Humidity: 59%
Barometer: 1013 hPa
Clouds: Mostly cloudy
Visibility: 6 miles , 10 km
Cloud details: Mostly cloudy 914 m
2019/05/20 10:50 EGBB 201050Z 32007KT 9999 BKN030 16/08 Q1013